Terminal Aerodrome Forecast
Issued by NWS Raleigh/Durham, NC

Home | Current Version | Previous Version | Text Only | Print | Product List | Glossary On
Versions: 1 2 3 4 5 6 7 8 9 10 11 12 13 14 15 16 17 18 19 20 21 22 23
000
FTUS42 KRAH 270536
TAFGSO
TAF
KGSO 270536Z 2706/2806 18009KT P6SM BKN100
     FM271200 21006KT P6SM BKN025
      TEMPO 2712/2715 BKN018
     FM272000 23010G16KT P6SM BKN035
     FM280000 20005KT P6SM OVC250=

USA.gov is the U.S. government's official web portal to all federal, state and local government web resources and services.